sensor_id;sensor_type;location;lat;lon;timestamp;pressure;altitude;pressure_sealevel;temperature;humidity
10732;BME280;5417;42.686;23.244;2022-12-16T00:01:44;94111.22;;;6.82;83.69
10732;BME280;5417;42.686;23.244;2022-12-16T00:04:11;94137.03;;;6.94;85.60
10732;BME280;5417;42.686;23.244;2022-12-16T00:06:38;94139.72;;;6.93;86.08
10732;BME280;5417;42.686;23.244;2022-12-16T00:09:05;94137.75;;;6.96;85.84
10732;BME280;5417;42.686;23.244;2022-12-16T00:11:33;94129.88;;;6.98;86.38
10732;BME280;5417;42.686;23.244;2022-12-16T00:14:00;94137.75;;;6.96;86.32
10732;BME280;5417;42.686;23.244;2022-12-16T00:16:27;94139.41;;;6.97;85.64
10732;BME280;5417;42.686;23.244;2022-12-16T00:18:54;94145.94;;;6.90;85.55
10732;BME280;5417;42.686;23.244;2022-12-16T00:21:23;94133.34;;;6.86;85.43
10732;BME280;5417;42.686;23.244;2022-12-16T00:23:56;94140.50;;;6.82;85.69
10732;BME280;5417;42.686;23.244;2022-12-16T00:26:30;94130.97;;;6.83;85.96
10732;BME280;5417;42.686;23.244;2022-12-16T00:28:58;94129.09;;;6.85;85.87
10732;BME280;5417;42.686;23.244;2022-12-16T00:31:25;94138.41;;;6.87;85.78
10732;BME280;5417;42.686;23.244;2022-12-16T00:33:59;94142.66;;;6.88;85.63
10732;BME280;5417;42.686;23.244;2022-12-16T00:36:34;94151.25;;;6.89;85.15
10732;BME280;5417;42.686;23.244;2022-12-16T00:39:01;94124.75;;;6.85;85.23
10732;BME280;5417;42.686;23.244;2022-12-16T00:41:45;94133.34;;;6.86;85.68
10732;BME280;5417;42.686;23.244;2022-12-16T00:44:14;94129.94;;;6.85;85.25
10732;BME280;5417;42.686;23.244;2022-12-16T00:46:47;94129.09;;;6.85;85.80
10732;BME280;5417;42.686;23.244;2022-12-16T00:49:36;94131.47;;;6.88;85.75
10732;BME280;5417;42.686;23.244;2022-12-16T00:52:05;94124.88;;;6.84;85.36
10732;BME280;5417;42.686;23.244;2022-12-16T00:54:43;94129.81;;;6.87;85.15
10732;BME280;5417;42.686;23.244;2022-12-16T00:57:10;94134.06;;;6.88;85.27
10732;BME280;5417;42.686;23.244;2022-12-16T00:59:38;94111.56;;;6.77;85.24
10732;BME280;5417;42.686;23.244;2022-12-16T01:02:07;94124.22;;;6.93;84.67
10732;BME280;5417;42.686;23.244;2022-12-16T01:04:41;94126.19;;;6.89;83.76
10732;BME280;5417;42.686;23.244;2022-12-16T01:07:10;94126.69;;;6.94;83.26
10732;BME280;5417;42.686;23.244;2022-12-16T01:09:53;94121.41;;;6.96;82.17
10732;BME280;5417;42.686;23.244;2022-12-16T01:12:25;94138.03;;;6.81;81.96
10732;BME280;5417;42.686;23.244;2022-12-16T01:15:05;94119.38;;;6.52;83.13
10732;BME280;5417;42.686;23.244;2022-12-16T01:17:40;94136.47;;;6.42;83.85
10732;BME280;5417;42.686;23.244;2022-12-16T01:20:08;94128.63;;;6.30;85.11
10732;BME280;5417;42.686;23.244;2022-12-16T01:22:36;94137.72;;;6.36;85.46
10732;BME280;5417;42.686;23.244;2022-12-16T01:25:04;94136.97;;;6.47;85.04
10732;BME280;5417;42.686;23.244;2022-12-16T01:27:31;94122.53;;;6.31;84.03
10732;BME280;5417;42.686;23.244;2022-12-16T01:29:58;94138.13;;;6.17;85.11
10732;BME280;5417;42.686;23.244;2022-12-16T01:32:27;94112.59;;;6.13;85.59
10732;BME280;5417;42.686;23.244;2022-12-16T01:34:56;94118.91;;;6.09;86.01
10732;BME280;5417;42.686;23.244;2022-12-16T01:37:30;94114.97;;;6.16;86.55
10732;BME280;5417;42.686;23.244;2022-12-16T01:40:03;94121.28;;;6.12;85.46
10732;BME280;5417;42.686;23.244;2022-12-16T01:42:30;94119.03;;;5.94;86.32
10732;BME280;5417;42.686;23.244;2022-12-16T01:45:35;94107.97;;;6.05;86.27
10732;BME280;5417;42.686;23.244;2022-12-16T01:48:21;94114.69;;;5.95;86.63
10732;BME280;5417;42.686;23.244;2022-12-16T01:50:58;94104.25;;;5.96;87.32
10732;BME280;5417;42.686;23.244;2022-12-16T01:53:28;94110.75;;;6.02;87.50
10732;BME280;5417;42.686;23.244;2022-12-16T01:55:55;94108.91;;;6.04;86.81
10732;BME280;5417;42.686;23.244;2022-12-16T01:58:27;94096.09;;;6.03;87.12
10732;BME280;5417;42.686;23.244;2022-12-16T02:01:13;94105.88;;;6.10;86.34
10732;BME280;5417;42.686;23.244;2022-12-16T02:03:42;94099.88;;;6.22;84.88
10732;BME280;5417;42.686;23.244;2022-12-16T02:06:14;94073.53;;;6.17;84.47
10732;BME280;5417;42.686;23.244;2022-12-16T02:08:52;94085.19;;;6.23;84.95
10732;BME280;5417;42.686;23.244;2022-12-16T02:11:55;94077.44;;;6.36;84.52
10732;BME280;5417;42.686;23.244;2022-12-16T02:14:42;94078.69;;;6.30;84.09
10732;BME280;5417;42.686;23.244;2022-12-16T02:17:17;94079.53;;;6.30;83.82
10732;BME280;5417;42.686;23.244;2022-12-16T02:23:04;94063.19;;;6.30;83.63
10732;BME280;5417;42.686;23.244;2022-12-16T02:26:12;94077.31;;;6.37;83.74
10732;BME280;5417;42.686;23.244;2022-12-16T02:29:07;94082.38;;;6.39;83.82
10732;BME280;5417;42.686;23.244;2022-12-16T02:31:43;94070.06;;;6.42;83.29
10732;BME280;5417;42.686;23.244;2022-12-16T02:34:17;94083.94;;;6.41;82.74
10732;BME280;5417;42.686;23.244;2022-12-16T02:36:58;94087.34;;;6.42;83.09
10732;BME280;5417;42.686;23.244;2022-12-16T02:39:35;94092.91;;;6.48;83.15
10732;BME280;5417;42.686;23.244;2022-12-16T02:42:10;94077.50;;;6.47;82.67
10732;BME280;5417;42.686;23.244;2022-12-16T02:44:44;94092.38;;;6.56;82.81
10732;BME280;5417;42.686;23.244;2022-12-16T02:47:20;94071.56;;;6.57;82.83
10732;BME280;5417;42.686;23.244;2022-12-16T02:49:52;94081.38;;;6.65;82.94
10732;BME280;5417;42.686;23.244;2022-12-16T02:52:21;94112.78;;;6.72;83.61
10732;BME280;5417;42.686;23.244;2022-12-16T02:54:52;94117.13;;;6.71;83.43
10732;BME280;5417;42.686;23.244;2022-12-16T02:57:38;94113.50;;;6.74;83.55
10732;BME280;5417;42.686;23.244;2022-12-16T03:00:08;94118.97;;;6.82;83.14
10732;BME280;5417;42.686;23.244;2022-12-16T03:02:46;94083.47;;;6.84;83.46
10732;BME280;5417;42.686;23.244;2022-12-16T03:05:20;94097.84;;;6.88;84.42
10732;BME280;5417;42.686;23.244;2022-12-16T03:07:52;94096.81;;;6.90;84.01
10732;BME280;5417;42.686;23.244;2022-12-16T03:10:34;94063.97;;;6.67;83.00
10732;BME280;5417;42.686;23.244;2022-12-16T03:13:04;94083.63;;;6.70;83.41
10732;BME280;5417;42.686;23.244;2022-12-16T03:15:33;94082.78;;;6.69;83.86
10732;BME280;5417;42.686;23.244;2022-12-16T03:18:08;94066.69;;;6.65;83.03
10732;BME280;5417;42.686;23.244;2022-12-16T03:20:40;94064.81;;;6.68;82.80
10732;BME280;5417;42.686;23.244;2022-12-16T03:23:12;94072.56;;;6.68;83.02
10732;BME280;5417;42.686;23.244;2022-12-16T03:25:43;94090.06;;;6.64;82.67
10732;BME280;5417;42.686;23.244;2022-12-16T03:28:20;94068.97;;;6.57;83.06
10732;BME280;5417;42.686;23.244;2022-12-16T03:30:59;94065.47;;;6.58;82.54
10732;BME280;5417;42.686;23.244;2022-12-16T03:33:34;94076.53;;;6.60;82.31
10732;BME280;5417;42.686;23.244;2022-12-16T03:36:16;94062.22;;;6.44;83.08
10732;BME280;5417;42.686;23.244;2022-12-16T03:38:46;94097.50;;;6.69;81.85
10732;BME280;5417;42.686;23.244;2022-12-16T03:41:22;94099.97;;;6.70;81.65
10732;BME280;5417;42.686;23.244;2022-12-16T03:43:51;94104.53;;;6.67;81.42
10732;BME280;5417;42.686;23.244;2022-12-16T03:46:20;94105.13;;;6.70;80.64
10732;BME280;5417;42.686;23.244;2022-12-16T03:48:50;94093.75;;;6.73;80.27
10732;BME280;5417;42.686;23.244;2022-12-16T03:51:18;94115.09;;;6.63;80.25
10732;BME280;5417;42.686;23.244;2022-12-16T03:53:45;94092.16;;;6.59;80.66
10732;BME280;5417;42.686;23.244;2022-12-16T03:56:12;94106.44;;;6.52;81.54
10732;BME280;5417;42.686;23.244;2022-12-16T03:58:39;94125.09;;;6.68;80.82
10732;BME280;5417;42.686;23.244;2022-12-16T04:01:12;94118.00;;;6.59;81.78
10732;BME280;5417;42.686;23.244;2022-12-16T04:03:39;94120.66;;;6.70;82.65
10732;BME280;5417;42.686;23.244;2022-12-16T04:06:08;94087.03;;;6.70;82.06
10732;BME280;5417;42.686;23.244;2022-12-16T04:08:35;94104.19;;;6.71;82.59
10732;BME280;5417;42.686;23.244;2022-12-16T04:11:02;94102.66;;;6.69;82.50
10732;BME280;5417;42.686;23.244;2022-12-16T04:13:46;94108.25;;;6.62;82.46
10732;BME280;5417;42.686;23.244;2022-12-16T04:16:31;94104.31;;;6.70;82.42
10732;BME280;5417;42.686;23.244;2022-12-16T04:19:20;94110.31;;;6.70;82.81
10732;BME280;5417;42.686;23.244;2022-12-16T04:22:20;94117.84;;;6.73;82.45
10732;BME280;5417;42.686;23.244;2022-12-16T04:25:08;94108.22;;;6.75;83.03
10732;BME280;5417;42.686;23.244;2022-12-16T04:27:37;94086.22;;;6.70;83.23
10732;BME280;5417;42.686;23.244;2022-12-16T04:30:05;94109.56;;;6.81;83.04
10732;BME280;5417;42.686;23.244;2022-12-16T04:32:50;94094.94;;;6.92;83.00
10732;BME280;5417;42.686;23.244;2022-12-16T04:35:36;94093.88;;;6.95;82.50
10732;BME280;5417;42.686;23.244;2022-12-16T04:38:25;94099.06;;;6.95;83.51
10732;BME280;5417;42.686;23.244;2022-12-16T04:41:12;94101.97;;;6.90;83.33
10732;BME280;5417;42.686;23.244;2022-12-16T04:44:01;94069.78;;;6.94;83.59
10732;BME280;5417;42.686;23.244;2022-12-16T04:46:47;94087.38;;;6.89;83.35
10732;BME280;5417;42.686;23.244;2022-12-16T04:49:31;94075.72;;;6.84;83.73
10732;BME280;5417;42.686;23.244;2022-12-16T04:52:20;94094.00;;;6.93;84.27
10732;BME280;5417;42.686;23.244;2022-12-16T04:55:07;94089.63;;;6.94;84.34
10732;BME280;5417;42.686;23.244;2022-12-16T04:57:52;94095.19;;;7.01;84.55
10732;BME280;5417;42.686;23.244;2022-12-16T05:00:40;94065.25;;;7.09;82.72
10732;BME280;5417;42.686;23.244;2022-12-16T05:03:25;94098.44;;;7.15;83.50
10732;BME280;5417;42.686;23.244;2022-12-16T05:06:10;94104.16;;;7.08;83.66
10732;BME280;5417;42.686;23.244;2022-12-16T05:08:54;94054.84;;;6.98;83.29
10732;BME280;5417;42.686;23.244;2022-12-16T05:11:40;94081.16;;;6.92;84.69
10732;BME280;5417;42.686;23.244;2022-12-16T05:14:29;94075.00;;;6.82;84.24
10732;BME280;5417;42.686;23.244;2022-12-16T05:17:16;94101.28;;;6.76;84.68
10732;BME280;5417;42.686;23.244;2022-12-16T05:20:01;94112.50;;;6.63;85.08
10732;BME280;5417;42.686;23.244;2022-12-16T05:22:46;94105.34;;;6.67;86.51
10732;BME280;5417;42.686;23.244;2022-12-16T05:25:30;94108.31;;;6.74;86.61
10732;BME280;5417;42.686;23.244;2022-12-16T05:28:16;94108.03;;;6.78;87.14
10732;BME280;5417;42.686;23.244;2022-12-16T05:31:11;94115.41;;;6.95;84.64
10732;BME280;5417;42.686;23.244;2022-12-16T05:33:55;94134.28;;;6.85;84.77
10732;BME280;5417;42.686;23.244;2022-12-16T05:36:40;94135.66;;;6.78;85.35
10732;BME280;5417;42.686;23.244;2022-12-16T05:39:26;94139.88;;;6.79;85.46
10732;BME280;5417;42.686;23.244;2022-12-16T05:42:21;94128.19;;;6.73;86.06
10732;BME280;5417;42.686;23.244;2022-12-16T05:45:07;94132.19;;;6.90;85.04
10732;BME280;5417;42.686;23.244;2022-12-16T05:47:53;94132.75;;;6.82;84.96
10732;BME280;5417;42.686;23.244;2022-12-16T05:50:37;94133.69;;;6.81;85.28
10732;BME280;5417;42.686;23.244;2022-12-16T05:53:22;94137.41;;;6.77;84.87
10732;BME280;5417;42.686;23.244;2022-12-16T05:56:06;94109.63;;;6.55;85.24
10732;BME280;5417;42.686;23.244;2022-12-16T05:58:50;94159.66;;;6.80;86.09
10732;BME280;5417;42.686;23.244;2022-12-16T06:01:38;94163.84;;;6.93;84.31
10732;BME280;5417;42.686;23.244;2022-12-16T06:04:23;94175.13;;;6.92;84.39
10732;BME280;5417;42.686;23.244;2022-12-16T06:07:06;94176.34;;;7.00;84.25
10732;BME280;5417;42.686;23.244;2022-12-16T06:09:51;94138.63;;;6.84;83.94
10732;BME280;5417;42.686;23.244;2022-12-16T06:12:31;94178.88;;;6.76;83.84
10732;BME280;5417;42.686;23.244;2022-12-16T06:15:16;94190.47;;;6.70;85.18
10732;BME280;5417;42.686;23.244;2022-12-16T06:18:01;94176.72;;;6.70;85.39
10732;BME280;5417;42.686;23.244;2022-12-16T06:20:46;94177.03;;;6.78;85.16
10732;BME280;5417;42.686;23.244;2022-12-16T06:23:31;94184.78;;;6.78;84.67
10732;BME280;5417;42.686;23.244;2022-12-16T06:26:15;94181.38;;;6.77;85.63
10732;BME280;5417;42.686;23.244;2022-12-16T06:29:00;94186.03;;;6.85;85.51
10732;BME280;5417;42.686;23.244;2022-12-16T06:31:44;94184.16;;;6.87;84.84
10732;BME280;5417;42.686;23.244;2022-12-16T06:34:32;94169.78;;;6.83;85.13
10732;BME280;5417;42.686;23.244;2022-12-16T06:37:17;94179.47;;;6.92;84.79
10732;BME280;5417;42.686;23.244;2022-12-16T06:40:01;94169.63;;;6.97;85.25
10732;BME280;5417;42.686;23.244;2022-12-16T06:42:45;94148.25;;;7.06;84.04
10732;BME280;5417;42.686;23.244;2022-12-16T06:45:29;94158.72;;;7.05;83.34
10732;BME280;5417;42.686;23.244;2022-12-16T06:48:14;94141.06;;;6.99;84.00
10732;BME280;5417;42.686;23.244;2022-12-16T06:51:00;94161.31;;;7.05;83.38
10732;BME280;5417;42.686;23.244;2022-12-16T06:53:44;94171.66;;;7.05;84.41
10732;BME280;5417;42.686;23.244;2022-12-16T06:56:28;94166.31;;;7.78;98.36
10732;BME280;5417;42.686;23.244;2022-12-16T06:59:12;94177.78;;;8.89;100.00
10732;BME280;5417;42.686;23.244;2022-12-16T07:01:57;94162.63;;;9.16;100.00
10732;BME280;5417;42.686;23.244;2022-12-16T07:04:41;94184.03;;;8.41;81.25
10732;BME280;5417;42.686;23.244;2022-12-16T07:07:27;94197.25;;;8.03;82.08
10732;BME280;5417;42.686;23.244;2022-12-16T07:10:11;94192.69;;;7.72;81.96
10732;BME280;5417;42.686;23.244;2022-12-16T07:12:56;94178.75;;;7.62;82.95
10732;BME280;5417;42.686;23.244;2022-12-16T07:15:41;94178.41;;;7.31;84.23
10732;BME280;5417;42.686;23.244;2022-12-16T07:18:25;94165.47;;;7.31;84.62
10732;BME280;5417;42.686;23.244;2022-12-16T07:21:06;94173.75;;;7.23;85.54
10732;BME280;5417;42.686;23.244;2022-12-16T07:23:52;94185.59;;;7.15;85.90
10732;BME280;5417;42.686;23.244;2022-12-16T07:26:36;94191.50;;;7.17;85.54
10732;BME280;5417;42.686;23.244;2022-12-16T07:29:21;94179.69;;;7.13;85.30
10732;BME280;5417;42.686;23.244;2022-12-16T07:32:05;94190.38;;;7.08;85.73
10732;BME280;5417;42.686;23.244;2022-12-16T07:34:49;94203.41;;;6.83;86.12
10732;BME280;5417;42.686;23.244;2022-12-16T07:37:33;94183.16;;;6.77;87.47
10732;BME280;5417;42.686;23.244;2022-12-16T07:40:19;94202.66;;;6.93;87.39
10732;BME280;5417;42.686;23.244;2022-12-16T07:43:03;94199.19;;;7.06;86.47
10732;BME280;5417;42.686;23.244;2022-12-16T07:45:47;94190.94;;;7.01;87.41
10732;BME280;5417;42.686;23.244;2022-12-16T07:48:32;94204.81;;;7.00;88.04
10732;BME280;5417;42.686;23.244;2022-12-16T07:51:15;94187.19;;;7.05;87.18
10732;BME280;5417;42.686;23.244;2022-12-16T07:54:00;94190.00;;;7.02;85.64
10732;BME280;5417;42.686;23.244;2022-12-16T07:56:46;94189.66;;;7.06;87.26
10732;BME280;5417;42.686;23.244;2022-12-16T07:59:30;94208.66;;;7.18;87.45
10732;BME280;5417;42.686;23.244;2022-12-16T08:02:15;94183.84;;;7.15;87.00
10732;BME280;5417;42.686;23.244;2022-12-16T08:04:55;94190.06;;;7.13;87.21
10732;BME280;5417;42.686;23.244;2022-12-16T08:07:39;94195.50;;;7.21;86.21
10732;BME280;5417;42.686;23.244;2022-12-16T08:10:24;94210.72;;;7.25;86.34
10732;BME280;5417;42.686;23.244;2022-12-16T08:13:10;94217.94;;;7.33;86.56
10732;BME280;5417;42.686;23.244;2022-12-16T08:15:54;94196.72;;;7.28;87.23
10732;BME280;5417;42.686;23.244;2022-12-16T08:18:39;94194.31;;;7.38;86.56
10732;BME280;5417;42.686;23.244;2022-12-16T08:21:24;94192.78;;;7.35;86.34
10732;BME280;5417;42.686;23.244;2022-12-16T08:24:08;94203.25;;;7.34;86.93
10732;BME280;5417;42.686;23.244;2022-12-16T08:26:53;94189.97;;;7.38;87.84
10732;BME280;5417;42.686;23.244;2022-12-16T08:29:39;94202.72;;;7.52;87.55
10732;BME280;5417;42.686;23.244;2022-12-16T08:32:23;94214.19;;;7.61;85.75
10732;BME280;5417;42.686;23.244;2022-12-16T08:35:08;94210.28;;;7.55;86.53
10732;BME280;5417;42.686;23.244;2022-12-16T08:37:53;94192.16;;;7.55;87.62
10732;BME280;5417;42.686;23.244;2022-12-16T08:40:38;94176.50;;;7.57;87.77
10732;BME280;5417;42.686;23.244;2022-12-16T08:43:23;94174.41;;;7.62;87.66
10732;BME280;5417;42.686;23.244;2022-12-16T08:46:09;94188.19;;;7.63;87.64
10732;BME280;5417;42.686;23.244;2022-12-16T08:48:59;94181.03;;;7.77;88.04
10732;BME280;5417;42.686;23.244;2022-12-16T08:51:45;94183.31;;;7.82;88.36
10732;BME280;5417;42.686;23.244;2022-12-16T08:54:30;94165.66;;;7.87;88.45
10732;BME280;5417;42.686;23.244;2022-12-16T08:57:14;94175.34;;;7.96;89.02
10732;BME280;5417;42.686;23.244;2022-12-16T08:59:59;94145.28;;;7.94;89.03
10732;BME280;5417;42.686;23.244;2022-12-16T09:02:45;94153.09;;;8.16;88.93
10732;BME280;5417;42.686;23.244;2022-12-16T09:05:31;94161.69;;;8.16;88.28
10732;BME280;5417;42.686;23.244;2022-12-16T09:08:16;94159.00;;;8.29;85.85
10732;BME280;5417;42.686;23.244;2022-12-16T09:11:06;94146.13;;;8.28;85.73
10732;BME280;5417;42.686;23.244;2022-12-16T09:13:51;94149.97;;;8.35;86.47
10732;BME280;5417;42.686;23.244;2022-12-16T09:16:36;94137.41;;;8.29;86.45
10732;BME280;5417;42.686;23.244;2022-12-16T09:19:22;94123.88;;;8.25;86.74
10732;BME280;5417;42.686;23.244;2022-12-16T09:22:06;94146.38;;;8.24;87.25
10732;BME280;5417;42.686;23.244;2022-12-16T09:24:50;94113.78;;;8.33;87.33
10732;BME280;5417;42.686;23.244;2022-12-16T09:27:35;94111.72;;;8.14;86.21
10732;BME280;5417;42.686;23.244;2022-12-16T09:30:20;94112.19;;;8.31;86.88
10732;BME280;5417;42.686;23.244;2022-12-16T09:33:04;94106.84;;;8.34;86.56
10732;BME280;5417;42.686;23.244;2022-12-16T09:35:50;94104.84;;;8.37;87.60
10732;BME280;5417;42.686;23.244;2022-12-16T09:38:34;94119.06;;;8.54;87.59
10732;BME280;5417;42.686;23.244;2022-12-16T09:41:27;94107.06;;;8.42;84.53
10732;BME280;5417;42.686;23.244;2022-12-16T09:44:20;94097.25;;;8.23;86.27
10732;BME280;5417;42.686;23.244;2022-12-16T09:47:13;94110.78;;;8.27;87.22
10732;BME280;5417;42.686;23.244;2022-12-16T09:50:01;94095.00;;;8.18;86.93
10732;BME280;5417;42.686;23.244;2022-12-16T09:52:51;94085.91;;;8.24;88.03
10732;BME280;5417;42.686;23.244;2022-12-16T09:55:39;94095.69;;;8.20;88.45
10732;BME280;5417;42.686;23.244;2022-12-16T09:58:26;94114.44;;;8.24;88.82
10732;BME280;5417;42.686;23.244;2022-12-16T10:01:12;94110.56;;;8.07;88.79
10732;BME280;5417;42.686;23.244;2022-12-16T10:03:57;94098.88;;;8.24;89.95
10732;BME280;5417;42.686;23.244;2022-12-16T10:06:59;94099.97;;;8.33;89.31
10732;BME280;5417;42.686;23.244;2022-12-16T10:09:49;94104.84;;;8.37;88.51
10732;BME280;5417;42.686;23.244;2022-12-16T10:12:42;94103.94;;;8.26;88.49
10732;BME280;5417;42.686;23.244;2022-12-16T10:15:34;94111.19;;;8.33;89.75
10732;BME280;5417;42.686;23.244;2022-12-16T10:18:28;94090.19;;;8.47;89.76
10732;BME280;5417;42.686;23.244;2022-12-16T10:21:17;94087.69;;;8.68;89.32
10732;BME280;5417;42.686;23.244;2022-12-16T10:24:08;94054.88;;;8.78;89.98
10732;BME280;5417;42.686;23.244;2022-12-16T10:27:02;94064.28;;;9.23;90.05
10732;BME280;5417;42.686;23.244;2022-12-16T10:29:49;94050.56;;;9.53;89.99
10732;BME280;5417;42.686;23.244;2022-12-16T10:32:46;94046.59;;;9.79;87.19
10732;BME280;5417;42.686;23.244;2022-12-16T10:35:35;94044.38;;;9.95;83.65
10732;BME280;5417;42.686;23.244;2022-12-16T10:38:35;94060.41;;;10.21;83.81
10732;BME280;5417;42.686;23.244;2022-12-16T10:41:24;94036.16;;;10.21;81.94
10732;BME280;5417;42.686;23.244;2022-12-16T10:44:18;94064.16;;;10.38;81.04
10732;BME280;5417;42.686;23.244;2022-12-16T10:47:03;94040.09;;;10.46;80.36
10732;BME280;5417;42.686;23.244;2022-12-16T10:49:48;94046.16;;;10.65;80.96
10732;BME280;5417;42.686;23.244;2022-12-16T10:52:34;94038.19;;;10.57;78.73
10732;BME280;5417;42.686;23.244;2022-12-16T10:55:33;94059.84;;;10.58;79.83
10732;BME280;5417;42.686;23.244;2022-12-16T10:59:22;94072.84;;;10.48;80.03
10732;BME280;5417;42.686;23.244;2022-12-16T11:01:57;94059.03;;;10.27;80.05
10732;BME280;5417;42.686;23.244;2022-12-16T11:04:42;94064.25;;;10.27;80.54
10732;BME280;5417;42.686;23.244;2022-12-16T11:07:51;94065.50;;;10.32;81.08
10732;BME280;5417;42.686;23.244;2022-12-16T11:10:37;94064.16;;;10.38;80.46
10732;BME280;5417;42.686;23.244;2022-12-16T11:13:25;94053.78;;;10.48;80.16
10732;BME280;5417;42.686;23.244;2022-12-16T11:16:12;94050.25;;;10.58;80.04
10732;BME280;5417;42.686;23.244;2022-12-16T11:18:58;94048.75;;;10.65;79.60
10732;BME280;5417;42.686;23.244;2022-12-16T11:21:43;94063.81;;;10.62;79.60
10732;BME280;5417;42.686;23.244;2022-12-16T11:24:27;94053.28;;;10.73;79.42
10732;BME280;5417;42.686;23.244;2022-12-16T11:27:15;94039.75;;;10.79;78.17
10732;BME280;5417;42.686;23.244;2022-12-16T11:30:01;94046.59;;;10.90;78.75
10732;BME280;5417;42.686;23.244;2022-12-16T11:32:50;94022.22;;;10.91;77.48
10732;BME280;5417;42.686;23.244;2022-12-16T11:35:39;94047.31;;;11.01;77.76
10732;BME280;5417;42.686;23.244;2022-12-16T11:38:27;94019.63;;;11.20;77.14
10732;BME280;5417;42.686;23.244;2022-12-16T11:41:22;94023.03;;;11.39;76.62
10732;BME280;5417;42.686;23.244;2022-12-16T11:44:15;94036.22;;;11.57;75.62
10732;BME280;5417;42.686;23.244;2022-12-16T11:47:20;94012.72;;;11.67;75.83
10732;BME280;5417;42.686;23.244;2022-12-16T11:50:13;94001.59;;;11.75;76.22
10732;BME280;5417;42.686;23.244;2022-12-16T11:53:01;93997.06;;;11.86;76.21
10732;BME280;5417;42.686;23.244;2022-12-16T11:55:51;94010.63;;;11.99;75.80
10732;BME280;5417;42.686;23.244;2022-12-16T11:58:42;94000.00;;;12.11;75.53
10732;BME280;5417;42.686;23.244;2022-12-16T12:01:32;93996.53;;;12.20;75.52
10732;BME280;5417;42.686;23.244;2022-12-16T12:04:18;93988.31;;;12.15;74.75
10732;BME280;5417;42.686;23.244;2022-12-16T12:07:24;94008.16;;;12.25;74.98
10732;BME280;5417;42.686;23.244;2022-12-16T12:10:38;94005.13;;;12.30;74.58
10732;BME280;5417;42.686;23.244;2022-12-16T12:13:41;93999.84;;;12.40;74.75
10732;BME280;5417;42.686;23.244;2022-12-16T12:16:40;93997.78;;;12.43;74.64
10732;BME280;5417;42.686;23.244;2022-12-16T12:19:37;93983.66;;;12.36;73.91
10732;BME280;5417;42.686;23.244;2022-12-16T12:22:32;93997.59;;;12.54;74.47
10732;BME280;5417;42.686;23.244;2022-12-16T12:25:22;93983.72;;;12.54;75.05
10732;BME280;5417;42.686;23.244;2022-12-16T12:28:18;93987.16;;;12.54;74.24
10732;BME280;5417;42.686;23.244;2022-12-16T12:31:22;93986.03;;;12.57;74.88
10732;BME280;5417;42.686;23.244;2022-12-16T12:34:20;93986.13;;;12.65;74.71
10732;BME280;5417;42.686;23.244;2022-12-16T12:37:10;93975.81;;;12.63;74.85
10732;BME280;5417;42.686;23.244;2022-12-16T12:40:02;93970.91;;;12.60;74.77
10732;BME280;5417;42.686;23.244;2022-12-16T12:42:55;93977.16;;;12.68;74.77
10732;BME280;5417;42.686;23.244;2022-12-16T12:45:49;93981.88;;;12.82;74.38
10732;BME280;5417;42.686;23.244;2022-12-16T12:48:44;93975.38;;;12.86;74.72
10732;BME280;5417;42.686;23.244;2022-12-16T12:51:38;93973.59;;;12.86;75.29
10732;BME280;5417;42.686;23.244;2022-12-16T12:54:31;93977.19;;;12.85;75.17
10732;BME280;5417;42.686;23.244;2022-12-16T12:57:20;93991.66;;;12.98;74.76
10732;BME280;5417;42.686;23.244;2022-12-16T13:00:14;93981.69;;;13.11;74.39
10732;BME280;5417;42.686;23.244;2022-12-16T13:03:04;93973.47;;;13.23;74.21
10732;BME280;5417;42.686;23.244;2022-12-16T13:05:51;93958.97;;;13.11;74.45
10732;BME280;5417;42.686;23.244;2022-12-16T13:08:52;93964.34;;;13.10;74.62
10732;BME280;5417;42.686;23.244;2022-12-16T13:11:38;93963.00;;;13.06;75.11
10732;BME280;5417;42.686;23.244;2022-12-16T13:14:53;93950.63;;;13.08;75.54
10732;BME280;5417;42.686;23.244;2022-12-16T13:18:20;93979.16;;;13.01;75.13
10732;BME280;5417;42.686;23.244;2022-12-16T13:24:34;93971.31;;;13.01;75.80
10732;BME280;5417;42.686;23.244;2022-12-16T13:27:16;93962.09;;;12.97;76.22
10732;BME280;5417;42.686;23.244;2022-12-16T13:30:03;93946.13;;;12.82;76.74
10732;BME280;5417;42.686;23.244;2022-12-16T13:32:53;93970.59;;;12.99;75.63
10732;BME280;5417;42.686;23.244;2022-12-16T13:35:51;93950.81;;;12.96;76.42
10732;BME280;5417;42.686;23.244;2022-12-16T13:38:44;93964.84;;;12.95;76.14
10732;BME280;5417;42.686;23.244;2022-12-16T13:41:51;93971.56;;;12.98;76.55
10732;BME280;5417;42.686;23.244;2022-12-16T13:44:58;93982.63;;;12.92;76.24
10732;BME280;5417;42.686;23.244;2022-12-16T13:47:58;93982.56;;;12.84;77.22
10732;BME280;5417;42.686;23.244;2022-12-16T13:50:47;94002.09;;;12.80;76.84
10732;BME280;5417;42.686;23.244;2022-12-16T13:53:33;93989.19;;;12.78;77.05
10732;BME280;5417;42.686;23.244;2022-12-16T13:56:24;93988.00;;;12.73;77.80
10732;BME280;5417;42.686;23.244;2022-12-16T13:59:14;93993.88;;;12.75;77.53
10732;BME280;5417;42.686;23.244;2022-12-16T14:02:08;94012.09;;;12.67;77.23
10732;BME280;5417;42.686;23.244;2022-12-16T14:04:57;94013.06;;;12.66;77.87
10732;BME280;5417;42.686;23.244;2022-12-16T14:07:43;94014.91;;;12.55;78.16
10732;BME280;5417;42.686;23.244;2022-12-16T14:10:30;94028.94;;;12.54;77.91
10732;BME280;5417;42.686;23.244;2022-12-16T14:13:20;94026.47;;;12.53;78.24
10732;BME280;5417;42.686;23.244;2022-12-16T14:16:11;94017.97;;;12.41;78.64
10732;BME280;5417;42.686;23.244;2022-12-16T14:19:10;94012.91;;;12.40;78.53
10732;BME280;5417;42.686;23.244;2022-12-16T14:22:07;94039.59;;;12.33;79.71
10732;BME280;5417;42.686;23.244;2022-12-16T14:25:05;94023.91;;;12.33;79.30
10732;BME280;5417;42.686;23.244;2022-12-16T14:27:50;94031.22;;;12.30;79.94
10732;BME280;5417;42.686;23.244;2022-12-16T14:30:36;94030.00;;;12.24;80.12
10732;BME280;5417;42.686;23.244;2022-12-16T14:33:22;94026.88;;;12.21;80.12
10732;BME280;5417;42.686;23.244;2022-12-16T14:36:22;94030.69;;;12.26;80.27
10732;BME280;5417;42.686;23.244;2022-12-16T14:39:12;94031.25;;;12.20;80.19
10732;BME280;5417;42.686;23.244;2022-12-16T14:41:58;94033.47;;;12.15;80.88
10732;BME280;5417;42.686;23.244;2022-12-16T14:44:44;94011.88;;;12.23;80.19